Terminal Aerodrome Forecast
Issued by NWS

Home | Current Version | Previous Version | Text Only | Print | Product List | Glossary On
Versions: 1 2 3 4 5 6 7 8 9 10 11 12 13 14
741
FTUS45 KFGZ 161135
TAFPRC
TAF
KPRC 161135Z 1612/1712 20005KT P6SM SKC
     FM161900 18010KT P6SM SCT100
     FM170200 VRB05KT P6SM FEW100=

USA.gov is the U.S. government's official web portal to all federal, state and local government web resources and services.